1853 Tropical Storm NOT_NAMED (1853239N11302)


IBTrACS version v04r00. Visit IBTrACS website for data access.
Please direct all questions to the IBTrACS Q and A forum

Storm track - Intensity - Wind Radii - Intensity Data - Source Data - All data

Summary Information

Storm ID 1853239N11302
Start Aug 26 12Z
Landfall Aug 30 06Z, Sep 2 03Z
Max Intensity 55 kt (Aug 27 00Z)
End Sep 3 12Z
ATCF IDs
Track status Best track data.

Storm track plot

Map of storm track

Intensity plots

Map of storm track

Radial wind information

No radial wind information for this storm


Position and Intensity Table

BASIN ISO_TIME_________ NATURE LAT LON MLC WIND
degrees north degrees east kts
NA 1853-08-26 12:00:00 TS 10.50 -58.50 50
NA 15:00:00 TS 10.75 -59.10 50
NA 18:00:00 TS 11.00 -59.70 50
NA 21:00:00 TS 11.25 -60.30 52
NA 1853-08-27 00:00:00 TS 11.50 -60.90 55
NA 03:00:00 TS 11.76 -61.50 55
NA 06:00:00 TS 12.00 -62.10 55
NA 09:00:00 TS 12.19 -62.70 55
NA 12:00:00 TS 12.40 -63.30 55
NA 15:00:00 TS 12.68 -63.90 55
NA 18:00:00 TS 13.00 -64.50 55
NA 21:00:00 TS 13.34 -65.10 55
NA 1853-08-28 00:00:00 TS 13.70 -65.70 55
NA 03:00:00 TS 14.06 -66.31 55
NA 06:00:00 TS 14.40 -66.90 55
NA 09:00:00 TS 14.70 -67.45 55
NA 12:00:00 TS 15.00 -68.00 55
NA 15:00:00 TS 15.34 -68.60 55
NA 18:00:00 TS 15.70 -69.20 55
NA 21:00:00 TS 16.06 -69.76 55
NA 1853-08-29 00:00:00 TS 16.40 -70.30 55
NA 03:00:00 TS 16.70 -70.85 55
NA 06:00:00 TS 17.00 -71.40 55
NA 09:00:00 TS 17.33 -71.94 55
NA 12:00:00 TS 17.70 -72.50 55
NA 15:00:00 TS 18.14 -73.14 52
NA 18:00:00 TS 18.60 -73.80 50
NA 21:00:00 TS 19.01 -74.40 47
NA 1853-08-30 00:00:00 TS 19.40 -75.00 45
NA 03:00:00 TS 19.80 -75.65 42
NA 06:00:00 TS 20.20 -76.30 40
NA 09:00:00 TS 20.62 -76.92 37
NA 12:00:00 TS 21.00 -77.50 35
NA 15:00:00 TS 21.27 -78.06 32
NA 18:00:00 TS 21.50 -78.60 30
NA 21:00:00 TS 21.75 -79.19 30
NA 1853-08-31 00:00:00 TS 22.00 -79.70 30
NA 03:00:00 TS 22.25 -80.05 30
NA 06:00:00 TS 22.50 -80.30 30
NA 09:00:00 TS 22.71 -80.53 30
NA 12:00:00 TS 23.00 -80.80 30
NA 15:00:00 TS 23.46 -81.21 30
NA 18:00:00 TS 24.00 -81.70 30
NA 21:00:00 TS 24.51 -82.25 32
NA 1853-09-01 00:00:00 TS 25.00 -82.70 35
NA 03:00:00 TS 25.46 -82.87 37
NA 06:00:00 TS 25.90 -82.90 40
NA 09:00:00 TS 26.34 -82.97 42
NA 12:00:00 TS 26.80 -83.00 45
NA 15:00:00 TS 27.30 -83.03 47
NA 18:00:00 TS 27.80 -83.00 50
NA 21:00:00 TS 28.26 -82.87 52
NA 1853-09-02 00:00:00 TS 28.70 -82.70 55
NA 03:00:00 TS 29.15 -82.59 50
NA 06:00:00 TS 29.60 -82.50 45
NA 09:00:00 TS 30.05 -82.43 42
NA 12:00:00 TS 30.50 -82.30 40
NA 15:00:00 TS 30.96 -82.04 37
NA 18:00:00 TS 31.40 -81.70 35
NA 21:00:00 TS 31.81 -81.35 32
NA 1853-09-03 00:00:00 TS 32.20 -81.00 30
NA 03:00:00 TS 32.60 -80.69 30
NA 06:00:00 TS 33.00 -80.40 30
NA 09:00:00 TS 33.40 -80.10 30
NA 12:00:00 TS 33.80 -79.80 30

Source Information

Agency Information
USA
TOKYO
CMA
HKO
NEWDELHI
REUNION
BOM
NADI
WELLINGTON
DS824
TD9636
TD9635
NEUMANN
MLC

All available IBTrACS Data

SEASON BASIN SUBBASIN ISO_TIME_________ NATURE LAT LON DIST2LAND LANDFALL IFLAG USA SSHS MLC LAT MLC LON MLC CLASS MLC WIND STORM SPEED STORM DIR
Year degrees north degrees east km km 1 degrees north degrees east kts kts degrees
1853 NA NA 1853-08-26 12:00:00 TS 10.50 -58.50 273 207 _____________O -1 10.50 -58.50 TS 50 13 293
1853 NA NA 15:00:00 TS 10.75 -59.10 208 145 _____________P -1 10.75 -59.10 TS 50 13 293
1853 NA NA 18:00:00 TS 11.00 -59.70 145 94 _____________O -1 11.00 -59.70 TS 50 13 293
1853 NA CS 21:00:00 TS 11.25 -60.30 94 81 _____________P -1 11.25 -60.30 TS 52 13 293
1853 NA CS 1853-08-27 00:00:00 TS 11.50 -60.90 90 89 _____________O -1 11.50 -60.90 TS 55 13 293
1853 NA CS 03:00:00 TS 11.76 -61.50 123 123 _____________P -1 11.76 -61.50 TS 55 13 293
1853 NA CS 06:00:00 TS 12.00 -62.10 146 145 _____________O -1 12.00 -62.10 TS 55 13 290
1853 NA CS 09:00:00 TS 12.19 -62.70 167 167 _____________P -1 12.19 -62.70 TS 55 12 289
1853 NA CS 12:00:00 TS 12.40 -63.30 191 191 _____________O -1 12.40 -63.30 TS 55 13 292
1853 NA CS 15:00:00 TS 12.68 -63.90 236 235 _____________P -1 12.68 -63.90 TS 55 13 297
1853 NA CS 18:00:00 TS 13.00 -64.50 270 270 _____________O -1 13.00 -64.50 TS 55 13 300
1853 NA CS 21:00:00 TS 13.34 -65.10 317 317 _____________P -1 13.34 -65.10 TS 55 14 301
1853 NA CS 1853-08-28 00:00:00 TS 13.70 -65.70 348 347 _____________O -1 13.70 -65.70 TS 55 14 301
1853 NA CS 03:00:00 TS 14.06 -66.31 391 388 _____________P -1 14.06 -66.31 TS 55 14 301
1853 NA CS 06:00:00 TS 14.40 -66.90 391 358 _____________O -1 14.40 -66.90 TS 55 13 300
1853 NA CS 09:00:00 TS 14.70 -67.45 359 333 _____________P -1 14.70 -67.45 TS 55 12 299
1853 NA CS 12:00:00 TS 15.00 -68.00 335 322 _____________O -1 15.00 -68.00 TS 55 13 300
1853 NA CS 15:00:00 TS 15.34 -68.60 324 281 _____________P -1 15.34 -68.60 TS 55 14 301
1853 NA CS 18:00:00 TS 15.70 -69.20 282 251 _____________O -1 15.70 -69.20 TS 55 13 303
1853 NA CS 21:00:00 TS 16.06 -69.76 238 178 _____________P -1 16.06 -69.76 TS 55 13 304
1853 NA CS 1853-08-29 00:00:00 TS 16.40 -70.30 178 119 _____________O -1 16.40 -70.30 TS 55 12 302
1853 NA CS 03:00:00 TS 16.70 -70.85 113 67 _____________P -1 16.70 -70.85 TS 55 12 300
1853 NA CS 06:00:00 TS 17.00 -71.40 67 54 _____________O -1 17.00 -71.40 TS 55 12 301
1853 NA CS 09:00:00 TS 17.33 -71.94 62 54 _____________P -1 17.33 -71.94 TS 55 13 304
1853 NA CS 12:00:00 TS 17.70 -72.50 54 11 _____________O -1 17.70 -72.50 TS 55 14 305
1853 NA CS 15:00:00 TS 18.14 -73.14 11 0 _____________P -1 18.14 -73.14 TS 52 15 306
1853 NA CS 18:00:00 TS 18.60 -73.80 11 10 _____________O -1 18.60 -73.80 TS 50 15 306
1853 NA CS 21:00:00 TS 19.01 -74.40 44 44 _____________P -1 19.01 -74.40 TS 47 14 305
1853 NA CS 1853-08-30 00:00:00 TS 19.40 -75.00 55 11 _____________O -1 19.40 -75.00 TS 45 14 304
1853 NA CS 03:00:00 TS 19.80 -75.65 15 0 _____________P -1 19.80 -75.65 TS 42 15 303
1853 NA NA 06:00:00 TS 20.20 -76.30 0 0 _____________O -1 20.20 -76.30 TS 40 14 305
1853 NA NA 09:00:00 TS 20.62 -76.92 0 0 _____________P -1 20.62 -76.92 TS 37 14 305
1853 NA NA 12:00:00 TS 21.00 -77.50 0 0 _____________O -1 21.00 -77.50 TS 35 13 301
1853 NA NA 15:00:00 TS 21.27 -78.06 0 0 _____________P -1 21.27 -78.06 TS 32 11 296
1853 NA CS 18:00:00 TS 21.50 -78.60 0 0 _____________O -1 21.50 -78.60 TD 30 12 294
1853 NA NA 21:00:00 TS 21.75 -79.19 0 0 _____________P -1 21.75 -79.19 TD 30 11 296
1853 NA NA 1853-08-31 00:00:00 TS 22.00 -79.70 0 0 _____________O -1 22.00 -79.70 TD 30 9 302
1853 NA NA 03:00:00 TS 22.25 -80.05 0 0 _____________P -1 22.25 -80.05 TD 30 7 312
1853 NA NA 06:00:00 TS 22.50 -80.30 0 0 _____________O -1 22.50 -80.30 TD 30 6 316
1853 NA NA 09:00:00 TS 22.71 -80.53 0 0 _____________P -1 22.71 -80.53 TD 30 7 317
1853 NA NA 12:00:00 TS 23.00 -80.80 0 0 _____________O -1 23.00 -80.80 TD 30 10 320
1853 NA NA 15:00:00 TS 23.46 -81.21 45 44 _____________P -1 23.46 -81.21 TD 30 13 320
1853 NA NA 18:00:00 TS 24.00 -81.70 100 100 _____________O -1 24.00 -81.70 TD 30 14 318
1853 NA NA 21:00:00 TS 24.51 -82.25 135 129 _____________P -1 24.51 -82.25 TD 32 14 318
1853 NA GM 1853-09-01 00:00:00 TS 25.00 -82.70 142 129 _____________O -1 25.00 -82.70 TS 35 11 330
1853 NA GM 03:00:00 TS 25.46 -82.87 128 111 _____________P -1 25.46 -82.87 TS 37 9 349
1853 NA GM 06:00:00 TS 25.90 -82.90 111 89 _____________O -1 25.90 -82.90 TS 40 9 354
1853 NA GM 09:00:00 TS 26.34 -82.97 89 66 _____________P -1 26.34 -82.97 TS 42 9 355
1853 NA GM 12:00:00 TS 26.80 -83.00 66 39 _____________O -1 26.80 -83.00 TS 45 10 356
1853 NA GM 15:00:00 TS 27.30 -83.03 39 14 _____________P -1 27.30 -83.03 TS 47 10 1
1853 NA GM 18:00:00 TS 27.80 -83.00 14 9 _____________O -1 27.80 -83.00 TS 50 10 9
1853 NA GM 21:00:00 TS 28.26 -82.87 19 9 _____________P -1 28.26 -82.87 TS 52 9 16
1853 NA GM 1853-09-02 00:00:00 TS 28.70 -82.70 9 0 _____________O -1 28.70 -82.70 TS 55 9 15
1853 NA NA 03:00:00 TS 29.15 -82.59 0 0 _____________P -1 29.15 -82.59 TS 50 9 11
1853 NA NA 06:00:00 TS 29.60 -82.50 0 0 _____________O -1 29.60 -82.50 TS 45 9 9
1853 NA NA 09:00:00 TS 30.05 -82.43 0 0 _____________P -1 30.05 -82.43 TS 42 9 11
1853 NA NA 12:00:00 TS 30.50 -82.30 0 0 _____________O -1 30.50 -82.30 TS 40 10 20
1853 NA NA 15:00:00 TS 30.96 -82.04 0 0 _____________P -1 30.96 -82.04 TS 37 10 30
1853 NA NA 18:00:00 TS 31.40 -81.70 0 0 _____________O -1 31.40 -81.70 TS 35 10 35
1853 NA NA 21:00:00 TS 31.81 -81.35 0 0 _____________P -1 31.81 -81.35 TS 32 10 37
1853 NA NA 1853-09-03 00:00:00 TS 32.20 -81.00 0 0 _____________O -1 32.20 -81.00 TD 30 10 35
1853 NA NA 03:00:00 TS 32.60 -80.69 0 0 _____________P -1 32.60 -80.69 TD 30 9 32
1853 NA NA 06:00:00 TS 33.00 -80.40 0 0 _____________O -1 33.00 -80.40 TD 30 9 32
1853 NA NA 09:00:00 TS 33.40 -80.10 0 0 _____________P -1 33.40 -80.10 TD 30 9 32
1853 NA NA 12:00:00 TS 33.80 -79.80 0 _____________O -1 33.80 -79.80 TD 30 9 32